Terminal Aerodrome Forecast
Issued by NWS

Home | Current Version | Previous Version | Text Only | Print | Product List | Glossary On
Versions: 1 2 3 4 5 6 7 8 9 10 11 12 13 14 15 16 17 18
000
FTUS42 KMLB 032340
TAFLEE
TAF
KLEE 032340Z 0400/0424 28009G15KT P6SM OVC300
     FM040900 22004KT P6SM SCT030 BKN050
     FM041300 23009KT P6SM VCTS SCT020CB BKN040
      TEMPO 0414/0418 3SM TSRA BKN025CB=

USA.gov is the U.S. government's official web portal to all federal, state and local government web resources and services.